This is the latest recevied weather packets stored in our database for station/object KB2KRJ. If no packets are shown the sender has not sent any weather packets the latest 10 day(s).
| Time | Temp. | Humidity | Pressure | Rain* | Wind** | Luminosity | Snow |
|---|---|---|---|---|---|---|---|
| 1777911355 | 18.33° C | 40% | 1009.2 hPa | 0 mm | - | - | - |
| 1777902341 | 15.56° C | 43% | 1010.8 hPa | 0 mm | - | - | - |
| 1777896009 | 8.89° C | 68% | 1011.7 hPa | 0 mm | - | - | - |
| 1777891561 | 3.33° C | 47% | 1011.9 hPa | 0 mm | - | - | - |
| 1777889755 | 2.78° C | 51% | 1011.7 hPa | 0 mm | - | - | - |
| 1777887952 | 2.78° C | 53% | 1011.7 hPa | 0 mm | - | - | - |
| 1777884362 | 3.89° C | 56% | 1011.4 hPa | 0 mm | - | - | - |
| 1777883443 | 3.89° C | 58% | 1011.5 hPa | 0 mm | - | - | - |
| 1777880735 | 4.44° C | 61% | 1011.4 hPa | 0 mm | - | - | - |
| 1777877128 | 5° C | 63% | 1011.5 hPa | 0 mm | - | - | - |
| 1777876226 | 5° C | 63% | 1011.5 hPa | 0 mm | - | - | - |
| 1777874423 | 5° C | 64% | 1011.5 hPa | 0 mm | - | - | - |
| 1777866309 | 5° C | 69% | 1012.1 hPa | 0 mm | - | - | - |
| 1777863615 | 5° C | 70% | 1012 hPa | 0 mm | - | - | - |
| 1777858214 | 7.22° C | 63% | 1011.9 hPa | 0 mm | - | - | - |
| 1777853702 | 10.56° C | 48% | 1010.9 hPa | 0 mm | - | - | - |
| 1777850160 | 11.67° C | 42% | 1010.4 hPa | 0 mm | - | - | - |
| 1777838448 | 12.78° C | 34% | 1010.1 hPa | 0 mm | - | - | - |
| 1777837547 | 13.33° C | 35% | 1010.3 hPa | 0 mm | - | - | - |
| 1777832130 | 10° C | 40% | 1011.4 hPa | 0 mm | - | - | - |
| 1777821324 | 8.33° C | 44% | 1012 hPa | 0 mm | - | - | - |
| 1777820441 | 8.89° C | 44% | 1012 hPa | 0 mm | - | - | - |
| 1777819522 | 9.44° C | 43% | 1012.1 hPa | 0 mm | - | - | - |
| 1777815912 | 7.78° C | 59% | 1012.2 hPa | 0 mm | - | - | - |
| 1777814105 | 6.67° C | 60% | 1012.4 hPa | 0 mm | - | - | - |
* Rain latest hour (hover to see other rain measurements)
** Current wind speed in m/s (hover to see current wind gust speed)